Time;durP1;ratioP1;P1;durP2;ratioP2;P2;SDS_P1;SDS_P2;PMS_P1;PMS_P2;Temp;Humidity;BMP_temperature;BMP_pressure;BME280_temperature;BME280_humidity;BME280_pressure;Samples;Min_cycle;Max_cycle;Signal;HPM_P1;HPM_P2
2021/12/23 00:01:16;;;;;;;53.08;37.90;;;-5.10;99.90;;;;;;4938013;29;20036;-73
2021/12/23 00:03:42;;;;;;;55.85;39.58;;;-5.20;99.90;;;;;;4938299;29;20032;-74
2021/12/23 00:06:08;;;;;;;55.45;38.15;;;-5.20;99.90;;;;;;4939806;29;20493;-73
2021/12/23 00:08:34;;;;;;;57.65;40.67;;;-5.20;99.90;;;;;;4919914;29;20044;-73
2021/12/23 00:11:01;;;;;;;57.28;39.42;;;-5.00;99.90;;;;;;4938965;29;20408;-74
2021/12/23 00:13:27;;;;;;;54.10;38.00;;;-4.90;99.90;;;;;;4938329;29;20042;-74
2021/12/23 00:23:52;;;;;;;67.32;45.42;;;-4.20;99.90;;;;;;4938111;29;20485;-73
2021/12/23 00:26:19;;;;;;;58.63;47.05;;;-4.00;99.90;;;;;;4922923;29;20052;-74
2021/12/23 00:28:45;;;;;;;63.92;46.40;;;-4.00;99.90;;;;;;4946059;29;20034;-73
2021/12/23 00:31:11;;;;;;;65.32;47.05;;;-3.90;99.90;;;;;;4954807;29;20046;-73
2021/12/23 00:33:40;;;;;;;65.38;48.13;;;-3.90;99.90;;;;;;4938519;29;20394;-77
2021/12/23 00:36:08;;;;;;;60.45;47.75;;;-4.00;99.90;;;;;;4937899;29;20042;-73
2021/12/23 00:38:39;;;;;;;58.05;46.70;;;-3.90;99.90;;;;;;4937686;29;20028;-73
2021/12/23 00:41:05;;;;;;;66.13;48.13;;;-3.90;99.90;;;;;;4937810;29;20059;-74
2021/12/23 00:43:32;;;;;;;66.38;45.78;;;-3.90;99.90;;;;;;4937942;29;20465;-73
2021/12/23 00:45:59;;;;;;;60.42;46.00;;;-4.00;99.90;;;;;;4937126;29;20035;-73
2021/12/23 00:48:26;;;;;;;58.78;45.45;;;-3.90;99.90;;;;;;4937916;29;20043;-73
2021/12/23 00:50:53;;;;;;;54.95;44.33;;;-4.00;99.90;;;;;;4937001;29;20055;-74
2021/12/23 00:53:22;;;;;;;62.33;44.97;;;-4.00;99.90;;;;;;4936871;29;20578;-73
2021/12/23 00:55:52;;;;;;;56.55;42.45;;;-4.10;99.90;;;;;;4936055;29;20032;-73
2021/12/23 00:58:23;;;;;;;50.88;41.17;;;-4.10;99.90;;;;;;4936926;29;20039;-73
2021/12/23 01:00:50;;;;;;;59.88;43.80;;;-4.10;99.90;;;;;;4935741;29;20393;-73
2021/12/23 01:03:16;;;;;;;59.92;44.10;;;-4.20;99.90;;;;;;4936246;29;20039;-73
2021/12/23 01:05:43;;;;;;;53.15;43.55;;;-4.20;99.90;;;;;;4936452;29;20520;-73
2021/12/23 01:08:09;;;;;;;55.58;42.95;;;-4.20;99.90;;;;;;4935981;29;20040;-73
2021/12/23 01:10:36;;;;;;;64.22;46.10;;;-4.30;99.90;;;;;;4935954;29;20063;-73
2021/12/23 01:13:04;;;;;;;60.78;43.47;;;-4.30;99.90;;;;;;4935309;29;20032;-73
2021/12/23 01:18:09;;;;;;;53.20;42.83;;;-4.30;99.90;;;;;;4935767;29;20046;-73
2021/12/23 01:20:37;;;;;;;55.15;43.22;;;-4.20;99.90;;;;;;4935962;29;20063;-73
2021/12/23 01:23:07;;;;;;;58.15;43.10;;;-4.20;99.90;;;;;;4929748;29;20044;-73
2021/12/23 01:25:36;;;;;;;60.92;44.20;;;-4.20;99.90;;;;;;4936588;29;20036;-74
2021/12/23 01:28:04;;;;;;;56.78;45.45;;;-4.10;99.90;;;;;;4936451;29;20495;-74
2021/12/23 01:30:31;;;;;;;55.03;44.78;;;-4.00;99.90;;;;;;4936172;29;20032;-73
2021/12/23 01:32:58;;;;;;;62.30;46.55;;;-4.00;99.90;;;;;;4935295;29;20031;-73
2021/12/23 01:35:26;;;;;;;60.13;46.40;;;-4.00;99.90;;;;;;4919031;29;20043;-73
2021/12/23 01:37:53;;;;;;;69.03;48.00;;;-3.90;99.90;;;;;;4935378;29;20039;-73
2021/12/23 01:40:21;;;;;;;63.90;47.42;;;-3.90;99.90;;;;;;4936143;29;20051;-73
2021/12/23 01:42:47;;;;;;;62.08;47.05;;;-3.80;99.90;;;;;;4938857;29;20031;-73
2021/12/23 01:45:18;;;;;;;66.55;47.63;;;-3.70;99.90;;;;;;4944482;29;20048;-73
2021/12/23 01:47:44;;;;;;;64.70;47.22;;;-3.70;99.90;;;;;;4952947;29;20036;-73
2021/12/23 01:50:14;;;;;;;66.82;47.83;;;-3.60;99.90;;;;;;4898693;29;1244944;-73
2021/12/23 01:52:40;;;;;;;57.65;48.35;;;-3.50;99.90;;;;;;4937333;29;20042;-74
2021/12/23 01:55:08;;;;;;;60.13;47.03;;;-3.50;99.90;;;;;;4938185;29;20039;-73
2021/12/23 01:57:34;;;;;;;54.75;45.92;;;-3.50;99.90;;;;;;4936928;29;20034;-73
2021/12/23 02:00:09;;;;;;;53.35;43.72;;;-3.40;99.90;;;;;;4936045;29;20040;-73
2021/12/23 02:02:39;;;;;;;54.72;44.13;;;-3.40;99.90;;;;;;4942187;28;20409;-76
2021/12/23 02:05:07;;;;;;;58.20;44.55;;;-3.40;99.90;;;;;;4936404;29;20035;-73
2021/12/23 02:07:34;;;;;;;49.20;42.97;;;-3.40;99.90;;;;;;4919196;29;20039;-73
2021/12/23 02:10:01;;;;;;;50.75;43.22;;;-3.40;99.90;;;;;;4935692;29;20051;-73
2021/12/23 02:12:27;;;;;;;54.15;42.35;;;-3.30;99.90;;;;;;4936503;29;20031;-73
2021/12/23 02:14:54;;;;;;;52.90;40.35;;;-3.30;99.90;;;;;;4936061;29;20042;-73
2021/12/23 02:17:20;;;;;;;47.90;40.72;;;-3.30;99.90;;;;;;4935829;29;20046;-73
2021/12/23 02:19:47;;;;;;;46.70;39.65;;;-3.20;99.90;;;;;;4935974;29;20043;-73
2021/12/23 02:22:13;;;;;;;56.53;41.80;;;-3.20;99.90;;;;;;4935434;28;20043;-73
2021/12/23 02:24:39;;;;;;;66.35;42.05;;;-3.20;99.90;;;;;;4935543;29;20027;-76
2021/12/23 02:27:05;;;;;;;46.95;38.65;;;-3.10;99.90;;;;;;4936232;29;20038;-73
2021/12/23 02:29:32;;;;;;;43.42;37.83;;;-3.10;99.90;;;;;;4936668;29;20027;-73
2021/12/23 02:31:58;;;;;;;54.15;38.80;;;-3.00;99.90;;;;;;4935138;29;20038;-75
2021/12/23 02:34:24;;;;;;;48.58;37.20;;;-3.00;99.90;;;;;;4954072;29;20043;-76
2021/12/23 02:36:56;;;;;;;62.75;38.13;;;-3.00;99.90;;;;;;4934924;29;20043;-74
2021/12/23 02:39:23;;;;;;;;;;;-2.90;99.90;;;;;;4936584;29;20047;-73
2021/12/23 02:41:50;;;;;;;43.85;34.20;;;-2.90;99.90;;;;;;4935982;29;20156;-73
2021/12/23 02:44:17;;;;;;;51.05;36.60;;;-2.90;99.90;;;;;;4918062;29;20504;-74
2021/12/23 02:46:43;;;;;;;43.45;37.17;;;-2.90;99.90;;;;;;4953829;29;20035;-73
2021/12/23 02:49:10;;;;;;;47.67;35.42;;;-2.80;99.90;;;;;;4935957;29;20047;-73
2021/12/23 02:51:36;;;;;;;40.92;33.17;;;-2.80;99.90;;;;;;4918445;29;20083;-72
2021/12/23 02:54:03;;;;;;;46.88;35.15;;;-2.80;99.90;;;;;;4942575;29;20031;-73
2021/12/23 02:56:30;;;;;;;42.78;34.85;;;-2.80;99.90;;;;;;4944930;29;20036;-72
2021/12/23 02:58:56;;;;;;;43.22;35.50;;;-2.80;99.90;;;;;;4934769;29;20031;-73
2021/12/23 03:01:23;;;;;;;46.65;33.92;;;-2.80;99.90;;;;;;4952279;29;20153;-75
2021/12/23 03:03:50;;;;;;;37.63;31.88;;;-2.80;99.90;;;;;;4950576;29;20043;-73
2021/12/23 03:06:18;;;;;;;42.33;33.30;;;-2.80;99.90;;;;;;4935318;29;20036;-73
2021/12/23 03:08:48;;;;;;;39.85;33.03;;;-2.80;99.90;;;;;;4934587;29;20036;-75
2021/12/23 03:11:17;;;;;;;44.33;32.83;;;-2.70;99.90;;;;;;4918525;29;20050;-73
2021/12/23 03:13:44;;;;;;;42.45;30.90;;;-2.70;99.90;;;;;;4934384;29;20381;-75
2021/12/23 03:16:13;;;;;;;51.42;32.45;;;-2.70;99.90;;;;;;4935305;29;20035;-73
2021/12/23 03:18:40;;;;;;;43.95;32.45;;;-2.70;99.90;;;;;;4935064;29;20384;-76
2021/12/23 03:21:07;;;;;;;37.78;31.30;;;-2.70;99.90;;;;;;4935658;29;20043;-72
2021/12/23 03:23:33;;;;;;;49.75;33.50;;;-2.70;99.90;;;;;;4935155;29;20028;-73
2021/12/23 03:26:00;;;;;;;40.30;32.70;;;-2.70;99.90;;;;;;4935506;29;20120;-73
2021/12/23 03:28:27;;;;;;;34.35;30.08;;;-2.70;99.90;;;;;;4935120;29;20036;-72
2021/12/23 03:30:53;;;;;;;41.70;31.27;;;-2.70;99.90;;;;;;4935154;29;20050;-73
2021/12/23 03:33:19;;;;;;;41.67;31.58;;;-2.70;99.90;;;;;;4934593;29;20039;-73
2021/12/23 03:35:47;;;;;;;45.83;33.55;;;-2.70;99.90;;;;;;4936748;29;20036;-73
2021/12/23 03:38:14;;;;;;;99.45;72.72;;;-2.70;99.90;;;;;;4939123;29;20043;-73
2021/12/23 03:40:41;;;;;;;91.47;61.55;;;-2.70;99.90;;;;;;4938542;29;20043;-76
2021/12/23 03:43:11;;;;;;;38.17;33.65;;;-2.70;99.90;;;;;;4938466;29;20043;-74
2021/12/23 03:45:38;;;;;;;73.20;49.53;;;-2.70;99.90;;;;;;4948824;29;20034;-73
2021/12/23 03:48:04;;;;;;;159.45;104.07;;;-2.80;99.90;;;;;;4938031;29;20046;-73
2021/12/23 03:50:31;;;;;;;60.13;43.10;;;-2.70;99.90;;;;;;4938304;29;20056;-73
2021/12/23 03:52:57;;;;;;;56.65;41.15;;;-2.70;99.90;;;;;;4937758;29;20042;-72
2021/12/23 03:55:23;;;;;;;43.38;35.90;;;-2.70;99.90;;;;;;4939016;29;20389;-72
2021/12/23 03:57:49;;;;;;;48.92;40.92;;;-2.70;99.90;;;;;;4938180;29;20062;-73
2021/12/23 04:00:18;;;;;;;61.75;50.30;;;-2.70;99.90;;;;;;4923736;29;20047;-73
2021/12/23 04:02:45;;;;;;;39.13;32.17;;;-2.80;99.90;;;;;;4946536;29;20406;-73
2021/12/23 04:05:11;;;;;;;101.03;86.68;;;-2.80;99.90;;;;;;4921894;29;20042;-73
2021/12/23 04:07:41;;;;;;;60.83;42.28;;;-2.80;99.90;;;;;;4938249;29;20040;-74
2021/12/23 04:10:09;;;;;;;45.13;35.65;;;-2.80;99.90;;;;;;4922172;29;20051;-72
2021/12/23 04:12:36;;;;;;;56.67;41.20;;;-2.80;99.90;;;;;;4921735;29;20032;-73
2021/12/23 04:15:04;;;;;;;42.88;33.40;;;-2.70;99.90;;;;;;4932828;29;20036;-72
2021/12/23 04:17:30;;;;;;;104.20;92.65;;;-2.60;99.90;;;;;;4944059;29;20036;-73
2021/12/23 04:20:09;;;;;;;56.65;43.95;;;-2.60;99.90;;;;;;4929927;29;20047;-73
2021/12/23 04:22:35;;;;;;;46.00;36.75;;;-2.60;99.90;;;;;;4939191;29;20028;-73
2021/12/23 04:25:02;;;;;;;51.67;38.00;;;-2.70;99.90;;;;;;4920601;29;20063;-73
2021/12/23 04:27:28;;;;;;;54.42;40.20;;;-2.80;99.90;;;;;;4938150;29;20396;-72
2021/12/23 04:29:54;;;;;;;40.78;34.25;;;-2.90;99.90;;;;;;4937727;29;20035;-73
2021/12/23 04:32:20;;;;;;;42.00;36.08;;;-2.90;99.90;;;;;;4930681;29;20036;-75
2021/12/23 04:34:47;;;;;;;45.90;36.67;;;-2.80;99.90;;;;;;4931821;29;20139;-73
2021/12/23 04:37:13;;;;;;;43.35;38.90;;;-2.80;99.90;;;;;;4938356;29;20380;-73
2021/12/23 04:39:40;;;;;;;46.38;37.75;;;-2.70;99.90;;;;;;4937619;29;20039;-76
2021/12/23 04:42:06;;;;;;;54.20;37.30;;;-2.60;99.90;;;;;;4937453;29;20389;-73
2021/12/23 04:44:33;;;;;;;57.92;47.55;;;-2.60;99.90;;;;;;4937926;29;20031;-73
2021/12/23 04:47:00;;;;;;;42.03;35.47;;;-2.50;99.90;;;;;;4936974;29;20036;-73
2021/12/23 04:49:26;;;;;;;45.85;37.53;;;-2.50;99.90;;;;;;4937780;29;20056;-73
2021/12/23 04:51:52;;;;;;;59.17;44.50;;;-2.40;99.90;;;;;;4935222;29;20043;-73
2021/12/23 04:54:18;;;;;;;71.18;47.97;;;-2.40;99.90;;;;;;4937984;29;20397;-73
2021/12/23 04:56:44;;;;;;;84.07;59.80;;;-2.40;99.90;;;;;;4937265;29;20028;-73
2021/12/23 04:59:10;;;;;;;92.97;77.10;;;-2.40;99.90;;;;;;4938205;29;20042;-73
2021/12/23 05:01:37;;;;;;;64.97;54.88;;;-2.40;99.90;;;;;;4920269;29;20416;-73
2021/12/23 05:04:04;;;;;;;63.78;48.17;;;-2.30;99.90;;;;;;4936407;29;20035;-73
2021/12/23 05:06:31;;;;;;;74.68;53.25;;;-2.30;99.90;;;;;;4936873;29;20036;-73
2021/12/23 05:08:57;;;;;;;49.33;36.30;;;-2.30;99.90;;;;;;4937148;29;20036;-73
2021/12/23 05:11:23;;;;;;;53.45;42.03;;;-2.30;99.90;;;;;;4935134;29;20044;-76
2021/12/23 05:13:49;;;;;;;55.42;40.22;;;-2.20;99.90;;;;;;4939080;29;20055;-74
2021/12/23 05:16:17;;;;;;;53.45;40.05;;;-2.10;99.90;;;;;;4937552;29;20047;-74
2021/12/23 05:18:44;;;;;;;50.33;38.22;;;-2.20;99.90;;;;;;4937463;29;20040;-77
2021/12/23 05:21:10;;;;;;;52.53;39.95;;;-2.10;99.90;;;;;;4937579;29;20405;-74
2021/12/23 05:23:37;;;;;;;49.33;37.35;;;-2.00;99.90;;;;;;4920241;29;20488;-73
2021/12/23 05:26:06;;;;;;;54.70;42.00;;;-2.10;99.90;;;;;;4941329;29;20465;-73
2021/12/23 05:28:32;;;;;;;48.90;35.72;;;-2.10;99.90;;;;;;4950232;29;20043;-73
2021/12/23 05:30:59;;;;;;;43.40;37.38;;;-2.10;99.90;;;;;;4934093;29;20050;-73
2021/12/23 05:33:26;;;;;;;52.00;38.85;;;-2.10;99.90;;;;;;4920512;29;20056;-75
2021/12/23 05:35:52;;;;;;;42.67;36.40;;;-2.10;99.90;;;;;;4936444;29;20027;-72
2021/12/23 05:38:18;;;;;;;57.33;41.38;;;-2.10;99.90;;;;;;4937089;29;20470;-73
2021/12/23 05:40:44;;;;;;;58.20;44.63;;;-2.20;99.90;;;;;;4936162;29;20043;-73
2021/12/23 05:43:11;;;;;;;49.55;39.22;;;-2.20;99.90;;;;;;4936302;29;20421;-73
2021/12/23 05:45:37;;;;;;;53.08;39.63;;;-2.10;99.90;;;;;;4936739;29;20028;-73
2021/12/23 05:48:03;;;;;;;51.92;34.33;;;-2.10;99.90;;;;;;4930429;29;20496;-73
2021/12/23 05:50:30;;;;;;;47.30;39.75;;;-2.10;99.90;;;;;;4936661;29;20086;-73
2021/12/23 05:52:56;;;;;;;45.65;35.30;;;-2.10;99.90;;;;;;4935513;29;20036;-73
2021/12/23 05:55:22;;;;;;;54.33;44.45;;;-2.10;99.90;;;;;;4935497;29;20413;-82
2021/12/23 05:57:49;;;;;;;51.92;41.58;;;-2.20;99.90;;;;;;4936139;29;20031;-82
2021/12/23 06:00:20;;;;;;;52.78;42.47;;;-2.20;99.90;;;;;;4936877;29;20043;-82
2021/12/23 06:02:47;;;;;;;60.72;38.13;;;-2.30;99.90;;;;;;4930728;29;20046;-82
2021/12/23 06:05:13;;;;;;;44.25;35.75;;;-2.20;99.90;;;;;;4957614;29;20032;-81
2021/12/23 06:07:40;;;;;;;60.63;46.10;;;-2.10;99.90;;;;;;4932013;29;20451;-82
2021/12/23 06:10:08;;;;;;;52.33;40.55;;;-2.10;99.90;;;;;;4935888;29;20043;-82
2021/12/23 06:12:34;;;;;;;45.63;36.83;;;-2.20;99.90;;;;;;4937046;29;20039;-82
2021/12/23 06:15:01;;;;;;;46.05;35.67;;;-2.20;99.90;;;;;;4903089;29;20051;-82
2021/12/23 06:17:27;;;;;;;49.13;36.17;;;-2.30;99.90;;;;;;4937809;29;20027;-81
2021/12/23 06:19:53;;;;;;;51.15;39.30;;;-2.20;99.90;;;;;;4945841;29;20038;-82
2021/12/23 06:22:20;;;;;;;35.50;31.75;;;-2.20;99.90;;;;;;4941980;29;20054;-82
2021/12/23 06:24:48;;;;;;;78.50;56.17;;;-2.20;99.90;;;;;;4933455;29;20040;-81
2021/12/23 06:27:15;;;;;;;45.35;35.40;;;-2.20;99.90;;;;;;4937976;29;20040;-81
2021/12/23 06:29:42;;;;;;;53.10;42.50;;;-2.30;99.90;;;;;;4951833;29;20036;-81
2021/12/23 06:32:08;;;;;;;50.15;34.97;;;-2.30;99.90;;;;;;4936578;29;20051;-81
2021/12/23 06:34:35;;;;;;;49.92;36.53;;;-2.30;99.90;;;;;;4937215;29;20035;-81
2021/12/23 06:37:03;;;;;;;42.65;31.25;;;-2.30;99.90;;;;;;4934100;29;20042;-81
2021/12/23 06:39:34;;;;;;;63.75;37.65;;;-2.30;99.90;;;;;;4936014;29;20043;-81
2021/12/23 06:42:01;;;;;;;53.42;39.25;;;-2.10;99.90;;;;;;4918362;29;20404;-79
2021/12/23 06:44:27;;;;;;;41.08;33.05;;;-2.10;99.90;;;;;;4954712;29;20036;-81
2021/12/23 06:46:53;;;;;;;42.10;33.63;;;-2.10;99.90;;;;;;4955313;29;20043;-81
2021/12/23 06:49:20;;;;;;;44.88;35.50;;;-2.20;99.90;;;;;;4955602;29;20074;-81
2021/12/23 06:51:46;;;;;;;52.47;41.45;;;-2.20;99.90;;;;;;4944631;29;20059;-81
2021/12/23 06:54:16;;;;;;;70.85;48.33;;;-2.30;99.90;;;;;;4969383;28;20026;-80
2021/12/23 06:56:46;;;;;;;48.55;39.60;;;-2.20;99.90;;;;;;4952479;29;20043;-82
2021/12/23 06:59:15;;;;;;;50.85;35.63;;;-2.20;99.90;;;;;;4928572;29;20046;-78
2021/12/23 07:01:46;;;;;;;39.97;31.85;;;-2.20;99.90;;;;;;4935739;29;20473;-81
2021/12/23 07:04:15;;;;;;;43.58;31.85;;;-2.20;99.90;;;;;;4918956;29;20031;-82
2021/12/23 07:07:25;;;;;;;41.97;33.28;;;-2.20;99.90;;;;;;4944261;29;20050;-81
2021/12/23 07:09:40;;;;;;;44.45;33.85;;;-2.20;99.90;;;;;;4945185;29;20044;-80
2021/12/23 07:12:07;;;;;;;;;;;-2.20;99.90;;;;;;4941241;29;20035;-80
2021/12/23 07:14:34;;;;;;;44.60;34.83;;;-2.20;99.90;;;;;;4935792;29;19917;-81
2021/12/23 07:17:01;;;;;;;37.30;29.80;;;-2.20;99.90;;;;;;4926015;29;20583;-81
2021/12/23 07:19:27;;;;;;;40.83;32.33;;;-2.20;99.90;;;;;;4935281;29;20035;-81
2021/12/23 07:21:53;;;;;;;41.90;32.03;;;-2.20;99.90;;;;;;4921283;29;20039;-83
2021/12/23 07:24:20;;;;;;;49.28;36.42;;;-2.20;99.90;;;;;;4945270;29;20042;-86
2021/12/23 07:26:47;;;;;;;44.38;33.20;;;-2.20;99.90;;;;;;4952340;29;20034;-83
2021/12/23 07:29:14;;;;;;;39.00;30.80;;;-2.20;99.90;;;;;;4954748;29;20034;-78
2021/12/23 07:31:40;;;;;;;44.30;34.05;;;-2.30;99.90;;;;;;4947289;29;20038;-80
2021/12/23 07:34:07;;;;;;;46.55;33.60;;;-2.20;99.90;;;;;;4934638;29;20027;-82
2021/12/23 07:36:34;;;;;;;44.67;33.33;;;-2.20;99.90;;;;;;4935592;29;20047;-79
2021/12/23 07:39:01;;;;;;;37.05;31.92;;;-2.10;99.90;;;;;;4935628;29;20035;-79
2021/12/23 07:41:27;;;;;;;44.13;32.08;;;-2.10;99.90;;;;;;4935324;29;20048;-77
2021/12/23 07:46:25;;;;;;;41.50;31.45;;;-2.10;99.90;;;;;;4923460;29;20374;-77
2021/12/23 07:48:51;;;;;;;48.08;30.83;;;-2.10;99.90;;;;;;4934995;29;20040;-77
2021/12/23 07:51:18;;;;;;;44.45;32.15;;;-2.10;99.90;;;;;;4945720;29;20031;-77
2021/12/23 07:53:44;;;;;;;40.70;31.17;;;-2.00;99.90;;;;;;4947305;29;20043;-80
2021/12/23 07:56:11;;;;;;;36.88;31.13;;;-2.00;99.90;;;;;;4936957;29;20036;-77
2021/12/23 07:58:37;;;;;;;43.17;32.03;;;-2.00;99.90;;;;;;4935427;29;20031;-78
2021/12/23 08:01:04;;;;;;;39.92;30.65;;;-2.00;99.90;;;;;;4949920;29;20040;-80
2021/12/23 08:03:30;;;;;;;35.42;30.17;;;-2.00;99.90;;;;;;4953800;29;20051;-80
2021/12/23 08:05:56;;;;;;;49.08;30.88;;;-1.90;99.90;;;;;;4941811;29;20047;-75
2021/12/23 08:08:23;;;;;;;44.17;31.67;;;-1.90;99.90;;;;;;4935425;29;20059;-76
2021/12/23 08:10:50;;;;;;;48.90;34.50;;;-1.90;99.90;;;;;;4934216;29;20044;-76
2021/12/23 08:13:19;;;;;;;44.50;36.83;;;-1.80;99.90;;;;;;4934804;29;20094;-76
2021/12/23 08:15:46;;;;;;;33.92;29.60;;;-1.70;99.90;;;;;;4934367;29;20050;-77
2021/12/23 08:18:12;;;;;;;46.80;32.15;;;-1.70;99.40;;;;;;4935159;29;20039;-75
2021/12/23 08:20:38;;;;;;;41.30;32.78;;;-1.60;99.10;;;;;;4935017;29;20465;-77
2021/12/23 08:23:05;;;;;;;40.05;27.55;;;-1.60;98.90;;;;;;4937734;29;20461;-76
2021/12/23 08:25:32;;;;;;;45.70;31.55;;;-1.50;98.60;;;;;;4947433;28;20032;-75
2021/12/23 08:27:58;;;;;;;40.28;30.25;;;-1.50;98.40;;;;;;4938255;29;20035;-77
2021/12/23 08:30:25;;;;;;;44.95;37.17;;;-1.40;97.90;;;;;;4948471;29;20042;-79
2021/12/23 08:32:51;;;;;;;36.83;27.75;;;-1.40;97.70;;;;;;4937682;29;20040;-77
2021/12/23 08:35:18;;;;;;;42.50;29.25;;;-1.40;97.30;;;;;;4938202;29;20028;-78
2021/12/23 08:37:47;;;;;;;37.50;29.45;;;-1.40;97.30;;;;;;4937597;29;20036;-79
2021/12/23 08:40:16;;;;;;;41.75;31.08;;;-1.30;97.20;;;;;;4940734;29;20396;-78
2021/12/23 08:42:42;;;;;;;43.80;33.13;;;-1.30;96.90;;;;;;4938458;29;20437;-77
2021/12/23 08:45:09;;;;;;;38.55;28.02;;;-1.30;96.70;;;;;;4937497;29;20042;-77
2021/12/23 08:47:36;;;;;;;39.17;27.08;;;-1.20;96.70;;;;;;4938020;29;20035;-76
2021/12/23 08:50:07;;;;;;;32.13;26.38;;;-1.10;96.40;;;;;;4937795;29;20051;-77
2021/12/23 08:52:35;;;;;;;44.05;27.23;;;-1.10;96.30;;;;;;4937259;29;20038;-77
2021/12/23 08:55:02;;;;;;;39.97;28.13;;;-1.00;96.10;;;;;;4950022;29;20038;-77
2021/12/23 08:57:28;;;;;;;39.53;25.63;;;-1.00;95.50;;;;;;4937860;29;20032;-77
2021/12/23 08:59:54;;;;;;;34.03;27.75;;;-1.00;95.60;;;;;;4943877;29;20027;-77
2021/12/23 09:02:20;;;;;;;36.95;26.33;;;-1.00;95.60;;;;;;4935456;29;20051;-77
2021/12/23 09:04:47;;;;;;;37.00;26.20;;;-0.90;95.50;;;;;;4937070;29;20038;-79
2021/12/23 09:07:16;;;;;;;31.58;26.95;;;-1.00;95.30;;;;;;4942123;29;20040;-77
2021/12/23 09:09:46;;;;;;;34.08;26.95;;;-0.90;95.30;;;;;;4931480;29;20032;-77
2021/12/23 09:12:12;;;;;;;37.60;27.65;;;-0.90;95.20;;;;;;4948027;29;20038;-77
2021/12/23 09:14:38;;;;;;;47.55;27.27;;;-0.80;95.10;;;;;;4948021;29;20389;-77
2021/12/23 09:17:05;;;;;;;26.92;24.13;;;-0.70;95.20;;;;;;4942791;29;20062;-77
2021/12/23 09:19:31;;;;;;;31.10;26.30;;;-0.70;94.60;;;;;;4948401;29;20053;-76
2021/12/23 09:21:57;;;;;;;33.55;26.38;;;-0.70;94.40;;;;;;4940072;29;20059;-77
2021/12/23 09:24:26;;;;;;;30.27;23.80;;;-0.70;94.70;;;;;;4942173;29;20036;-78
2021/12/23 09:26:55;;;;;;;34.47;25.55;;;-0.70;94.20;;;;;;4940811;29;20036;-75
2021/12/23 09:34:41;;;;;;;31.23;23.88;;;-0.50;94.30;;;;;;4937177;29;20035;-79
2021/12/23 09:37:08;;;;;;;39.28;24.38;;;-0.40;94.20;;;;;;4937343;29;20028;-78
2021/12/23 09:39:34;;;;;;;30.45;24.65;;;-0.40;93.70;;;;;;4936919;29;20362;-77
2021/12/23 09:42:03;;;;;;;27.20;24.35;;;-0.50;93.90;;;;;;4920082;29;20058;-76
2021/12/23 09:44:31;;;;;;;32.75;24.23;;;-0.50;93.70;;;;;;4939685;29;20035;-78
2021/12/23 09:47:02;;;;;;;26.77;24.00;;;-0.60;94.00;;;;;;4934600;29;20042;-78
2021/12/23 09:49:30;;;;;;;38.53;26.10;;;-0.60;93.90;;;;;;4936810;29;20056;-75
2021/12/23 09:51:57;;;;;;;31.65;25.73;;;-0.50;93.90;;;;;;4946333;29;20044;-77
2021/12/23 09:54:26;;;;;;;36.25;25.52;;;-0.50;94.00;;;;;;4936834;29;20465;-77
2021/12/23 09:56:53;;;;;;;31.30;26.35;;;-0.50;94.00;;;;;;4937499;29;20477;-78
2021/12/23 09:59:26;;;;;;;31.48;25.83;;;-0.50;93.90;;;;;;4943402;29;20040;-75
2021/12/23 10:01:52;;;;;;;27.83;24.85;;;-0.40;94.00;;;;;;4935453;29;20043;-76
2021/12/23 10:04:19;;;;;;;37.45;26.40;;;-0.40;93.90;;;;;;4937115;29;20473;-76
2021/12/23 10:06:47;;;;;;;34.28;26.13;;;-0.30;93.80;;;;;;4952013;29;20047;-75
2021/12/23 10:09:23;;;;;;;40.72;26.95;;;-0.20;93.70;;;;;;4954669;29;20457;-75
2021/12/23 10:31:10;;;;;;;33.20;23.60;;;0.40;92.60;;;;;;4953944;29;20034;-76
2021/12/23 10:37:13;;;;;;;36.85;26.83;;;0.50;92.00;;;;;;4954567;29;20046;-76
2021/12/23 10:39:24;;;;;;;26.88;23.23;;;0.40;92.40;;;;;;4934947;29;20040;-81
2021/12/23 10:41:51;;;;;;;27.73;23.40;;;0.40;92.60;;;;;;4924481;29;20054;-79
2021/12/23 10:44:29;;;;;;;31.58;25.38;;;0.40;92.40;;;;;;4921162;29;20042;-73
2021/12/23 10:46:58;;;;;;;97.28;68.82;;;0.40;92.80;;;;;;4953554;29;20034;-76
2021/12/23 10:52:07;;;;;;;57.80;47.20;;;0.40;92.60;;;;;;4954306;29;20039;-75
2021/12/23 11:00:31;;;;;;;29.83;26.70;;;0.60;92.40;;;;;;4958479;29;20034;-76
2021/12/23 11:03:09;;;;;;;36.80;27.90;;;0.70;92.40;;;;;;4940682;29;20047;-76
2021/12/23 11:05:43;;;;;;;30.02;24.27;;;0.70;92.40;;;;;;4958085;29;20043;-76
2021/12/23 11:41:34;;;;;;;28.17;23.63;;;1.40;91.30;;;;;;4954270;29;20046;-77
2021/12/23 11:43:51;;;;;;;32.55;26.20;;;1.40;91.50;;;;;;4960551;29;20059;-76
2021/12/23 11:46:27;;;;;;;67.55;58.85;;;1.50;91.60;;;;;;4945026;29;20125;-77
2021/12/23 11:48:56;;;;;;;31.10;27.05;;;1.60;91.50;;;;;;4960153;29;20480;-82
2021/12/23 11:51:33;;;;;;;45.97;34.53;;;1.60;91.20;;;;;;4941718;29;20043;-76
2021/12/23 11:54:03;;;;;;;28.75;25.45;;;1.60;91.10;;;;;;4958629;29;20032;-76
2021/12/23 11:56:31;;;;;;;48.85;43.78;;;1.50;91.00;;;;;;4956027;28;20492;-76
2021/12/23 11:59:01;;;;;;;28.40;23.42;;;1.50;91.20;;;;;;4957268;29;20031;-79
2021/12/23 12:01:30;;;;;;;35.85;27.52;;;1.50;91.30;;;;;;4959376;29;20035;-77
2021/12/23 12:04:04;;;;;;;32.65;27.42;;;1.60;91.20;;;;;;4963998;29;20043;-78
2021/12/23 12:06:37;;;;;;;35.55;26.83;;;1.70;91.20;;;;;;4963317;29;20035;-77
2021/12/23 12:09:14;;;;;;;39.55;27.75;;;1.60;91.10;;;;;;4941009;29;20043;-77
2021/12/23 12:11:53;;;;;;;27.95;24.38;;;1.70;91.20;;;;;;4958220;29;20035;-77
2021/12/23 12:14:40;;;;;;;28.83;24.35;;;1.70;91.10;;;;;;4957833;29;20376;-77
2021/12/23 12:17:28;;;;;;;29.48;22.13;;;1.70;91.10;;;;;;4957513;29;20043;-77
2021/12/23 12:20:07;;;;;;;25.38;22.17;;;1.80;91.10;;;;;;4957342;29;20381;-76
2021/12/23 12:22:55;;;;;;;29.98;24.02;;;1.70;91.00;;;;;;4957940;29;20043;-76
2021/12/23 12:25:24;;;;;;;39.30;24.00;;;1.70;91.20;;;;;;4957566;29;20046;-76
2021/12/23 12:27:56;;;;;;;29.92;23.35;;;1.80;91.20;;;;;;4957039;29;20456;-78
2021/12/23 12:30:45;;;;;;;28.27;24.27;;;1.80;91.30;;;;;;4939303;29;20047;-78
2021/12/23 12:33:28;;;;;;;27.20;23.92;;;1.80;91.40;;;;;;4956300;29;20400;-78
2021/12/23 12:35:57;;;;;;;30.85;24.60;;;1.90;91.30;;;;;;4940120;29;20039;-78
2021/12/23 12:38:27;;;;;;;35.17;25.25;;;1.90;91.10;;;;;;4956568;29;20027;-78
2021/12/23 12:41:07;;;;;;;30.63;25.10;;;2.00;91.00;;;;;;4956731;29;20047;-78
2021/12/23 12:43:49;;;;;;;30.67;25.70;;;2.10;91.30;;;;;;4956803;29;20043;-77
2021/12/23 12:49:25;;;;;;;31.65;23.95;;;2.20;90.40;;;;;;4955925;29;20059;-77
2021/12/23 12:51:55;;;;;;;32.08;25.05;;;2.20;90.40;;;;;;4957160;29;20043;-77
2021/12/23 12:54:33;;;;;;;34.80;24.10;;;2.20;90.50;;;;;;4955913;29;20084;-78
2021/12/23 12:57:10;;;;;;;30.83;23.00;;;2.30;90.50;;;;;;4964589;29;20035;-79
2021/12/23 12:59:43;;;;;;;29.58;24.27;;;2.40;90.20;;;;;;4940333;29;20051;-78
2021/12/23 13:02:26;;;;;;;36.35;25.95;;;2.40;90.10;;;;;;4955089;29;20055;-77
2021/12/23 13:04:57;;;;;;;32.17;27.15;;;2.30;90.40;;;;;;4956342;29;20373;-77
2021/12/23 13:07:48;;;;;;;43.33;27.63;;;2.30;90.50;;;;;;4956719;28;20043;-76
2021/12/23 13:10:46;;;;;;;30.27;25.25;;;2.20;90.70;;;;;;4953287;29;20039;-77
2021/12/23 13:13:32;;;;;;;31.98;25.15;;;2.30;90.80;;;;;;4952843;28;20046;-77
2021/12/23 13:16:10;;;;;;;28.58;23.92;;;2.30;90.60;;;;;;4947321;29;20046;-78
2021/12/23 13:18:37;;;;;;;41.42;28.63;;;2.30;90.70;;;;;;4953133;29;20038;-78
2021/12/23 13:21:06;;;;;;;43.63;29.45;;;2.30;90.80;;;;;;4939403;29;20092;-75
2021/12/23 13:23:40;;;;;;;148.02;104.03;;;2.30;90.80;;;;;;4956400;29;20473;-78
2021/12/23 13:26:15;;;;;;;35.30;27.65;;;2.40;90.90;;;;;;4956412;29;20046;-78
2021/12/23 13:28:54;;;;;;;39.47;26.80;;;2.40;91.00;;;;;;4956598;28;20035;-78
2021/12/23 13:31:27;;;;;;;235.27;157.10;;;2.40;90.90;;;;;;4956400;29;20034;-77
2021/12/23 13:33:59;;;;;;;121.35;77.05;;;2.50;91.00;;;;;;4957786;29;20046;-77
2021/12/23 13:36:32;;;;;;;49.05;34.88;;;2.50;91.00;;;;;;4956382;29;20043;-77
2021/12/23 13:39:00;;;;;;;31.70;23.30;;;2.50;90.90;;;;;;4956446;29;20042;-80
2021/12/23 13:41:30;;;;;;;45.55;37.22;;;2.60;91.00;;;;;;4955477;29;20027;-78
2021/12/23 13:43:58;;;;;;;52.55;39.90;;;2.60;91.00;;;;;;4955668;29;20039;-75
2021/12/23 13:46:26;;;;;;;192.32;136.60;;;2.70;91.20;;;;;;4954921;29;20477;-78
2021/12/23 13:48:56;;;;;;;35.92;26.05;;;2.70;91.00;;;;;;4955338;29;20042;-77
2021/12/23 13:51:27;;;;;;;61.70;44.72;;;2.80;90.90;;;;;;4954345;29;20027;-76
2021/12/23 13:54:12;;;;;;;65.30;45.70;;;2.80;90.80;;;;;;4955248;29;20046;-76
2021/12/23 13:56:42;;;;;;;34.15;28.75;;;2.80;90.70;;;;;;4955259;29;20038;-76
2021/12/23 13:59:20;;;;;;;34.08;29.63;;;2.90;90.70;;;;;;4948929;29;20039;-77
2021/12/23 14:01:53;;;;;;;27.67;23.63;;;2.90;90.80;;;;;;4954574;29;20054;-77